createdAt,value
2023-01-13T07:13:19.872Z,2.04
2023-01-13T07:16:24.189Z,2.04
2023-01-13T07:19:26.423Z,1.61
2023-01-13T07:22:29.036Z,1.61
2023-01-13T07:25:32.470Z,1.62
2023-01-13T07:28:36.522Z,1.67
2023-01-13T07:31:39.848Z,1.72
2023-01-13T07:34:42.570Z,1.73
2023-01-13T07:37:44.927Z,1.76
2023-01-13T07:40:47.661Z,1.80
2023-01-13T07:43:51.449Z,1.72
2023-01-13T07:46:53.909Z,1.73
2023-01-13T07:49:56.155Z,1.73
2023-01-13T07:52:58.792Z,1.76
2023-01-13T07:56:01.429Z,1.87
2023-01-13T07:59:05.666Z,1.97
2023-01-13T08:02:11.172Z,1.99
2023-01-13T08:05:14.084Z,2.12
2023-01-13T08:08:16.446Z,2.16
2023-01-13T08:11:19.113Z,2.19
2023-01-13T08:14:23.037Z,2.10
2023-01-13T08:17:25.749Z,2.03
2023-01-13T08:20:28.224Z,2.07
2023-01-13T08:23:30.949Z,2.18
2023-01-13T08:26:33.290Z,2.20
2023-01-13T08:29:37.315Z,2.20
2023-01-13T08:32:39.708Z,2.33
2023-01-13T08:35:42.426Z,2.28
2023-01-13T08:38:44.832Z,2.35
2023-01-13T08:41:56.298Z,2.52
2023-01-13T08:44:59.978Z,2.52
2023-01-13T08:48:02.706Z,2.69
2023-01-13T08:51:06.472Z,2.60
2023-01-13T08:54:08.914Z,2.62
2023-01-13T08:57:11.277Z,2.63
2023-01-13T09:00:17.103Z,2.65
2023-01-13T09:03:19.657Z,2.85
2023-01-13T09:06:22.355Z,2.82
2023-01-13T09:09:26.864Z,2.84
2023-01-13T09:12:47.933Z,2.78
2023-01-13T09:15:52.585Z,2.74
2023-01-13T09:18:55.296Z,2.69
2023-01-13T09:21:57.870Z,2.78
2023-01-13T09:25:00.525Z,2.94
2023-01-13T09:28:04.957Z,2.94
2023-01-13T09:31:09.013Z,2.93
2023-01-13T09:34:32.399Z,2.93
2023-01-13T09:37:36.130Z,2.93
2023-01-13T09:40:38.506Z,3.00
2023-01-13T09:43:56.173Z,2.95
2023-01-13T09:47:01.950Z,2.89
2023-01-13T09:50:15.515Z,2.76
2023-01-13T09:53:19.744Z,2.84
2023-01-13T09:56:22.590Z,2.82
2023-01-13T09:59:26.507Z,2.91
2023-01-13T10:02:39.331Z,2.98
2023-01-13T10:05:43.672Z,3.04
2023-01-13T10:08:46.148Z,2.94
2023-01-13T10:12:07.276Z,2.91
2023-01-13T10:15:13.725Z,2.85
2023-01-13T10:18:20.155Z,2.87
2023-01-13T10:21:33.361Z,2.85
2023-01-13T10:24:49.061Z,2.77
2023-01-13T10:27:52.449Z,3.09
2023-01-13T10:30:55.201Z,3.10
2023-01-13T10:33:59.678Z,3.16
2023-01-13T10:37:04.074Z,3.15
2023-01-13T10:40:12.723Z,3.14
2023-01-13T10:43:17.046Z,3.31
2023-01-13T10:46:19.892Z,3.41
2023-01-13T10:49:28.962Z,3.34
2023-01-13T10:52:32.843Z,3.52
2023-01-13T10:55:38.454Z,3.45
2023-01-13T10:58:40.871Z,3.56
2023-01-13T11:01:53.144Z,3.66
2023-01-13T11:05:10.635Z,3.70
2023-01-13T11:08:16.330Z,3.73
2023-01-13T11:11:27.268Z,3.74
2023-01-13T11:14:39.744Z,3.88
2023-01-13T11:17:45.414Z,3.88
2023-01-13T11:20:49.420Z,3.90
2023-01-13T11:23:56.684Z,4.04
2023-01-13T11:27:00.796Z,4.03
2023-01-13T11:30:09.656Z,4.15
2023-01-13T11:33:29.455Z,4.15
2023-01-13T11:36:33.827Z,4.25
2023-01-13T11:39:43.020Z,4.34
2023-01-13T11:42:48.606Z,4.53
2023-01-13T11:45:53.514Z,4.27
2023-01-13T11:48:56.384Z,4.64
2023-01-13T11:52:04.585Z,4.42
2023-01-13T11:55:15.854Z,4.31
2023-01-13T11:58:51.321Z,4.27
2023-01-13T12:02:04.814Z,4.25
2023-01-13T12:05:10.707Z,4.38
2023-01-13T12:08:18.183Z,4.10
2023-01-13T12:11:24.493Z,4.26
2023-01-13T12:14:31.323Z,4.35
2023-01-13T12:17:37.231Z,4.26
2023-01-13T12:20:42.927Z,4.26
2023-01-13T12:23:51.931Z,4.27
2023-01-13T12:26:56.944Z,4.29
2023-01-13T12:29:59.926Z,4.13
2023-01-13T12:33:06.844Z,4.31
2023-01-13T12:36:12.025Z,4.23
2023-01-13T12:39:18.552Z,4.12
2023-01-13T12:42:42.628Z,4.13
2023-01-13T12:45:45.062Z,4.10
2023-01-13T12:49:05.956Z,4.09
2023-01-13T12:52:13.823Z,4.03
2023-01-13T12:55:19.436Z,4.14
2023-01-13T12:58:26.298Z,4.02
2023-01-13T13:01:34.658Z,4.11
2023-01-13T13:04:44.228Z,4.20
2023-01-13T13:07:47.449Z,4.26
2023-01-13T13:11:01.671Z,4.25
2023-01-13T13:14:04.685Z,4.26
2023-01-13T13:17:41.344Z,4.19
2023-01-13T13:21:04.876Z,4.31
2023-01-13T13:24:10.195Z,4.32
2023-01-13T13:27:18.113Z,4.31
2023-01-13T13:30:21.530Z,4.30
2023-01-13T13:33:48.040Z,4.37
2023-01-13T13:37:21.287Z,4.39
2023-01-13T13:40:42.831Z,4.34
2023-01-13T13:44:05.118Z,4.37
2023-01-13T13:47:07.845Z,4.41
2023-01-13T13:50:14.273Z,4.55
2023-01-13T13:53:18.312Z,4.44
2023-01-13T13:56:23.006Z,4.38
2023-01-13T13:59:30.565Z,4.51
2023-01-13T14:02:35.848Z,4.45
2023-01-13T14:05:39.469Z,4.45
2023-01-13T14:08:46.661Z,4.46
2023-01-13T14:12:00.347Z,4.46
2023-01-13T14:15:05.141Z,4.46
2023-01-13T14:18:11.727Z,4.57
2023-01-13T14:21:19.237Z,4.60
2023-01-13T14:24:22.533Z,4.52
2023-01-13T14:27:27.337Z,4.54
2023-01-13T14:30:31.306Z,4.46
2023-01-13T14:33:34.889Z,4.58
2023-01-13T14:36:37.611Z,4.58
2023-01-13T14:39:40.607Z,4.50
2023-01-13T14:42:43.267Z,4.42
2023-01-13T14:45:56.442Z,4.55
2023-01-13T14:49:00.473Z,4.52
2023-01-13T14:52:07.264Z,4.49
2023-01-13T14:55:31.132Z,4.47
2023-01-13T14:58:33.650Z,4.44
2023-01-13T15:01:39.397Z,4.45
2023-01-13T15:04:41.976Z,4.36
2023-01-13T15:07:48.787Z,4.47
2023-01-13T15:10:52.864Z,4.38
2023-01-13T15:13:57.621Z,4.44
2023-01-13T15:17:01.377Z,4.56
2023-01-13T15:20:06.420Z,4.54
2023-01-13T15:23:08.569Z,4.46
2023-01-13T15:26:18.166Z,4.38
2023-01-13T15:29:20.619Z,4.39
2023-01-13T15:32:24.652Z,4.30
2023-01-13T15:35:28.022Z,4.28
2023-01-13T15:38:30.700Z,4.24
2023-01-13T15:41:51.557Z,4.19
2023-01-13T15:45:12.989Z,4.08
2023-01-13T15:48:16.779Z,4.15
2023-01-13T15:51:19.772Z,4.14
2023-01-13T15:54:24.480Z,4.16
2023-01-13T15:57:27.843Z,4.16
2023-01-13T16:00:30.306Z,4.17
2023-01-13T16:03:34.400Z,4.17
2023-01-13T16:12:37.580Z,4.74
2023-01-13T16:15:42.731Z,4.74
2023-01-13T16:18:45.073Z,4.18
2023-01-13T16:21:47.790Z,4.10
2023-01-13T16:24:50.230Z,4.12
2023-01-13T16:27:54.461Z,4.13
2023-01-13T16:30:56.836Z,4.19
2023-01-13T16:33:59.917Z,4.20
2023-01-13T16:37:02.351Z,4.17
2023-01-13T16:40:05.852Z,4.16
2023-01-13T16:43:11.477Z,4.11
2023-01-13T16:46:22.644Z,4.03
2023-01-13T16:49:25.043Z,4.05
2023-01-13T16:52:27.749Z,4.08
